CO53 weather

Yankee Field
Fort Collins, Colorado, United States

Public forecast

Using degrees Fahrenheit for public forecast. Weather courtesy of forecast.io.

Closest aviation weather report (METAR) to Yankee Field

Closest report is Northern Colorado Regional Airport, 11.0 nm (20.4 km) S. Retrieved 2020/04/08 03:56 UTC (57 minutes ago):

KFNL 080356Z 35006KT 10SM CLR 13/M11 A2997 RMK AO2 SLP108 T01281106

Closest aviation forecast (TAF) to Yankee Field

Closest forecast is Cheyenne Regional Jerry Olson Field, 32.3 nm (59.9 km) NNE. Retrieved 2020-04-08 00:33 UTC (4 hours ago):

TAF KCYS 072320Z 0800/0824 29025G35KT P6SM SKC FM080200 29010G20KT P6SM SKC FM080300 29013KT P6SM SKC FM080600 32012G22KT P6SM BKN250 FM081300 32015G25KT P6SM SCT250